Time;durP1;ratioP1;P1;durP2;ratioP2;P2;SDS_P1;SDS_P2;PMS_P1;PMS_P2;Temp;Humidity;BMP_temperature;BMP_pressure;BME280_temperature;BME280_humidity;BME280_pressure;Samples;Min_cycle;Max_cycle;Signal;HPM_P1;HPM_P2
2022/04/02 00:01:53;;;;;;;10.43;5.53;;;0.20;99.90;;;;;;6279880;22;20003;-89
2022/04/02 00:04:21;;;;;;;11.10;5.33;;;0.40;99.90;;;;;;6306665;22;19995;-88
2022/04/02 00:06:52;;;;;;;9.17;5.03;;;0.30;99.90;;;;;;6279678;22;20010;-88
2022/04/02 00:09:21;;;;;;;10.70;5.93;;;0.30;99.90;;;;;;6280034;22;20011;-87
2022/04/02 00:11:47;;;;;;;13.33;5.60;;;0.40;99.90;;;;;;6279749;22;20097;-88
2022/04/02 00:14:13;;;;;;;10.30;4.80;;;0.40;99.90;;;;;;6279550;22;20018;-88
2022/04/02 00:16:47;;;;;;;10.23;5.23;;;0.30;99.90;;;;;;6306917;22;20003;-88
2022/04/02 00:19:16;;;;;;;10.67;6.00;;;0.40;99.90;;;;;;6280286;22;20031;-87
2022/04/02 00:21:50;;;;;;;10.60;5.93;;;0.30;99.90;;;;;;6279828;22;20091;-87
2022/04/02 00:24:16;;;;;;;10.37;5.90;;;0.40;99.90;;;;;;6279135;22;20009;-87
2022/04/02 00:26:42;;;;;;;13.50;6.17;;;0.30;99.90;;;;;;6279794;22;20284;-88
2022/04/02 00:29:10;;;;;;;10.73;5.50;;;0.40;99.90;;;;;;6307435;22;20041;-88
2022/04/02 00:31:40;;;;;;;9.73;5.20;;;0.40;99.90;;;;;;6279313;22;20500;-87
2022/04/02 00:34:22;;;;;;;12.60;5.77;;;0.40;99.90;;;;;;6277191;22;20003;-88
2022/04/02 00:36:56;;;;;;;8.67;3.73;;;0.50;99.90;;;;;;6311873;22;20371;-87
2022/04/02 00:39:22;;;;;;;10.57;5.40;;;0.60;99.90;;;;;;6280001;22;20305;-88
2022/04/02 00:41:49;;;;;;;11.60;5.77;;;0.40;99.90;;;;;;6306536;22;20035;-89
2022/04/02 00:44:18;;;;;;;11.27;5.70;;;0.50;99.90;;;;;;6278938;22;19999;-88
2022/04/02 00:46:49;;;;;;;11.00;6.10;;;0.50;99.90;;;;;;6305748;22;19995;-88
2022/04/02 00:49:21;;;;;;;10.27;5.00;;;0.50;99.90;;;;;;6279596;22;20014;-87
2022/04/02 00:51:54;;;;;;;10.73;5.43;;;0.60;99.90;;;;;;6279002;22;20083;-86
2022/04/02 00:54:30;;;;;;;11.57;5.57;;;0.50;99.90;;;;;;6278961;22;20003;-87
2022/04/02 00:56:58;;;;;;;9.27;5.17;;;0.50;99.90;;;;;;6279435;22;20009;-88
2022/04/02 00:59:26;;;;;;;9.40;5.50;;;0.50;99.90;;;;;;6279698;22;19999;-88
2022/04/02 01:01:55;;;;;;;12.20;6.10;;;0.50;99.90;;;;;;6278707;22;20108;-88
2022/04/02 01:04:24;;;;;;;12.90;6.17;;;0.50;99.90;;;;;;6278972;22;19995;-88
2022/04/02 01:06:56;;;;;;;12.20;6.27;;;0.50;99.90;;;;;;6278684;22;20003;-87
2022/04/02 01:09:33;;;;;;;11.60;5.60;;;0.50;99.90;;;;;;6279641;22;19999;-88
2022/04/02 01:12:01;;;;;;;12.27;6.03;;;0.70;99.90;;;;;;6278972;22;20441;-88
2022/04/02 01:14:32;;;;;;;10.87;5.47;;;0.50;99.90;;;;;;6278356;22;20022;-88
2022/04/02 01:17:01;;;;;;;13.48;6.82;;;0.70;99.90;;;;;;6306661;22;20003;-88
2022/04/02 01:19:28;;;;;;;10.23;5.40;;;0.60;99.90;;;;;;6306503;22;20119;-89
2022/04/02 01:21:54;;;;;;;11.43;5.90;;;0.60;99.90;;;;;;6278587;22;20007;-86
2022/04/02 01:24:23;;;;;;;13.53;6.23;;;0.60;99.90;;;;;;6306198;22;20082;-88
2022/04/02 01:27:15;;;;;;;10.07;5.13;;;0.60;99.90;;;;;;6275185;22;19999;-88
2022/04/02 01:30:08;;;;;;;11.45;5.82;;;0.70;99.90;;;;;;6290306;22;20004;-89
2022/04/02 01:33:09;;;;;;;12.45;5.75;;;0.60;99.90;;;;;;6306979;22;20082;-88
2022/04/02 01:35:41;;;;;;;12.50;6.40;;;0.60;99.90;;;;;;6306101;22;20004;-88
2022/04/02 01:38:49;;;;;;;13.60;5.95;;;0.60;99.90;;;;;;6278522;22;20115;-88
2022/04/02 01:41:22;;;;;;;11.63;5.67;;;0.60;99.90;;;;;;6307547;22;20007;-88
2022/04/02 01:43:53;;;;;;;12.50;5.93;;;0.60;99.90;;;;;;6278354;22;20420;-89
2022/04/02 01:49:20;;;;;;;10.77;6.10;;;0.60;99.90;;;;;;6306938;22;20218;-88
2022/04/02 01:52:21;;;;;;;10.20;5.07;;;0.60;99.90;;;;;;6306163;22;20007;-88
2022/04/02 01:55:10;;;;;;;10.37;5.60;;;0.60;99.90;;;;;;6305777;22;20046;-88
2022/04/02 01:57:48;;;;;;;11.63;5.13;;;0.60;99.90;;;;;;6278415;22;20018;-89
2022/04/02 02:00:39;;;;;;;12.97;5.90;;;0.50;99.90;;;;;;6277879;22;20007;-88
2022/04/02 02:03:09;;;;;;;9.67;4.93;;;0.50;99.90;;;;;;6279767;22;20015;-88
2022/04/02 02:05:36;;;;;;;10.77;4.70;;;0.50;99.90;;;;;;6306425;22;20102;-87
2022/04/02 02:08:03;;;;;;;11.40;5.50;;;0.50;99.90;;;;;;6306328;22;19995;-87
2022/04/02 02:10:32;;;;;;;9.53;4.93;;;0.50;99.90;;;;;;6306171;22;20103;-87
2022/04/02 02:12:58;;;;;;;10.53;5.17;;;0.40;99.90;;;;;;6278338;22;20007;-88
2022/04/02 02:15:27;;;;;;;10.90;5.90;;;0.60;99.90;;;;;;6277355;22;20007;-88
2022/04/02 02:17:55;;;;;;;10.80;5.20;;;0.50;99.90;;;;;;6306184;22;20006;-88
2022/04/02 02:20:22;;;;;;;9.63;5.30;;;0.50;99.90;;;;;;6305829;22;20006;-88
2022/04/02 02:22:50;;;;;;;10.27;5.03;;;0.50;99.90;;;;;;6305856;22;20067;-87
2022/04/02 02:25:17;;;;;;;12.47;6.03;;;0.50;99.90;;;;;;6277705;22;19999;-87
2022/04/02 02:27:45;;;;;;;9.43;4.50;;;0.50;99.90;;;;;;6305329;22;20000;-88
2022/04/02 02:30:15;;;;;;;12.03;5.37;;;0.50;99.90;;;;;;6279189;22;19995;-89
2022/04/02 02:35:49;;;;;;;10.60;5.37;;;0.50;99.90;;;;;;6278644;22;20021;-88
2022/04/02 02:35:50;;;;;;;10.37;5.33;;;0.40;99.90;;;;;;6306411;22;20472;-88
2022/04/02 02:38:25;;;;;;;11.13;5.37;;;0.60;99.90;;;;;;6278190;22;20033;-89
2022/04/02 02:40:53;;;;;;;8.83;5.00;;;0.50;99.90;;;;;;6306195;22;19999;-88
2022/04/02 02:43:22;;;;;;;9.17;4.83;;;0.60;99.90;;;;;;6306465;22;20065;-88
2022/04/02 02:45:53;;;;;;;9.37;4.47;;;0.60;99.90;;;;;;6315600;22;19988;-86
2022/04/02 02:48:21;;;;;;;11.23;4.37;;;0.50;99.90;;;;;;6332513;22;20039;-85
2022/04/02 02:50:49;;;;;;;9.03;4.47;;;0.60;99.90;;;;;;6305243;22;20003;-86
2022/04/02 02:53:18;;;;;;;9.80;5.03;;;0.60;99.90;;;;;;6316032;22;20003;-88
2022/04/02 02:55:49;;;;;;;10.40;5.17;;;0.60;99.90;;;;;;6311611;22;20013;-88
2022/04/02 02:58:20;;;;;;;8.67;3.90;;;0.70;99.90;;;;;;6284309;22;20008;-87
2022/04/02 03:00:49;;;;;;;5.68;3.03;;;0.60;99.90;;;;;;6308317;22;20004;-87
2022/04/02 03:03:18;;;;;;;9.13;4.40;;;0.60;99.90;;;;;;6277791;22;20111;-87
2022/04/02 03:05:57;;;;;;;8.17;4.47;;;0.60;99.90;;;;;;6278344;22;20026;-88
2022/04/02 03:08:23;;;;;;;8.50;4.30;;;0.50;99.90;;;;;;6277804;22;19999;-87
2022/04/02 03:10:49;;;;;;;8.43;4.40;;;0.50;99.90;;;;;;6279430;22;20007;-88
2022/04/02 03:13:16;;;;;;;7.80;4.17;;;0.50;99.90;;;;;;6278544;22;20494;-88
2022/04/02 03:15:42;;;;;;;8.03;3.73;;;0.60;99.90;;;;;;6288040;22;20011;-88
2022/04/02 03:18:09;;;;;;;8.23;4.13;;;0.50;99.90;;;;;;6299337;22;20003;-87
2022/04/02 03:20:38;;;;;;;7.20;3.53;;;0.40;99.90;;;;;;6296212;22;20007;-87
2022/04/02 03:23:05;;;;;;;6.50;3.70;;;0.40;99.90;;;;;;6281177;22;19999;-87
2022/04/02 03:25:31;;;;;;;12.70;4.47;;;0.40;99.90;;;;;;6305461;22;20026;-88
2022/04/02 03:27:58;;;;;;;9.53;4.07;;;0.40;99.90;;;;;;6278456;22;20003;-87
2022/04/02 03:30:28;;;;;;;9.63;3.57;;;0.20;99.90;;;;;;6278046;22;20026;-87
2022/04/02 03:32:53;;;;;;;8.43;3.73;;;0.30;99.90;;;;;;6277685;22;20105;-87
2022/04/02 03:35:20;;;;;;;8.23;4.13;;;0.30;99.90;;;;;;6276833;22;20329;-86
2022/04/02 03:37:52;;;;;;;8.03;3.60;;;0.50;99.90;;;;;;6306302;22;20011;-88
2022/04/02 03:40:23;;;;;;;6.88;3.13;;;0.20;99.90;;;;;;6283089;22;20007;-88
2022/04/02 03:42:52;;;;;;;5.65;2.00;;;0.40;99.90;;;;;;6284246;22;20007;-87
2022/04/02 03:45:27;;;;;;;5.77;3.23;;;0.20;99.90;;;;;;6283079;22;20084;-87
2022/04/02 03:47:53;;;;;;;6.40;3.00;;;0.20;99.90;;;;;;6283609;22;20011;-88
2022/04/02 03:50:19;;;;;;;12.40;4.17;;;0.20;99.90;;;;;;6284378;22;20003;-88
2022/04/02 03:52:44;;;;;;;7.67;3.07;;;0.30;99.90;;;;;;6310435;22;20279;-88
2022/04/02 03:55:14;;;;;;;13.23;3.60;;;0.30;99.90;;;;;;6309157;22;20071;-87
2022/04/02 03:57:39;;;;;;;8.97;3.57;;;0.20;99.90;;;;;;6282649;22;20061;-87
2022/04/02 04:00:11;;;;;;;6.73;3.00;;;0.10;99.90;;;;;;6310089;22;20007;-87
2022/04/02 04:02:37;;;;;;;6.93;2.83;;;0.10;99.90;;;;;;6308842;22;20505;-88
2022/04/02 04:05:06;;;;;;;10.10;3.60;;;0.10;99.90;;;;;;6282726;22;20092;-88
2022/04/02 04:07:32;;;;;;;6.80;3.17;;;0.20;99.90;;;;;;6310136;22;20000;-88
2022/04/02 04:10:00;;;;;;;6.80;3.13;;;0.10;99.90;;;;;;6282988;22;20064;-88
2022/04/02 04:12:26;;;;;;;8.03;3.07;;;0.10;99.90;;;;;;6311678;22;20007;-87
2022/04/02 04:14:54;;;;;;;10.17;2.97;;;0.10;99.90;;;;;;6310944;22;19995;-88
2022/04/02 04:17:23;;;;;;;5.63;3.20;;;0.10;99.90;;;;;;6310230;22;20003;-86
2022/04/02 04:19:51;;;;;;;9.57;2.83;;;0.10;99.90;;;;;;6284160;22;20007;-87
2022/04/02 04:22:17;;;;;;;5.97;2.90;;;0.10;99.90;;;;;;6310823;22;20069;-86
2022/04/02 04:24:43;;;;;;;6.73;2.70;;;0.20;99.90;;;;;;6310078;22;20065;-88
2022/04/02 04:27:09;;;;;;;5.07;2.47;;;0.10;99.90;;;;;;6305401;22;20361;-88
2022/04/02 04:29:41;;;;;;;6.00;2.47;;;0.10;99.90;;;;;;6279694;22;19999;-87
2022/04/02 04:32:07;;;;;;;8.35;3.33;;;0.10;99.90;;;;;;6307834;22;19999;-87
2022/04/02 04:34:33;;;;;;;7.13;3.10;;;0.00;99.90;;;;;;6276767;22;20045;-86
2022/04/02 04:36:58;;;;;;;4.50;2.20;;;0.00;99.90;;;;;;6322820;22;19999;-86
2022/04/02 04:39:24;;;;;;;8.90;2.90;;;0.00;99.90;;;;;;6327032;22;20003;-85
2022/04/02 04:41:50;;;;;;;13.13;4.03;;;0.00;99.90;;;;;;6318968;22;20057;-87
2022/04/02 04:44:16;;;;;;;9.07;3.27;;;-0.10;99.90;;;;;;6289031;22;20011;-86
2022/04/02 04:46:41;;;;;;;10.17;3.70;;;-0.10;99.90;;;;;;6282123;22;20333;-86
2022/04/02 04:49:10;;;;;;;7.00;3.17;;;0.00;99.90;;;;;;6279752;22;20116;-87
2022/04/02 04:51:37;;;;;;;7.93;3.47;;;-0.10;99.90;;;;;;6279446;22;20007;-87
2022/04/02 04:54:03;;;;;;;5.57;2.80;;;-0.10;99.90;;;;;;6279122;22;20014;-87
2022/04/02 04:56:28;;;;;;;13.43;3.33;;;0.10;99.90;;;;;;6306046;22;20070;-86
2022/04/02 04:58:54;;;;;;;5.87;2.60;;;-0.10;99.90;;;;;;6306673;22;20009;-87
2022/04/02 05:01:25;;;;;;;6.77;2.63;;;0.10;99.90;;;;;;6279408;22;20007;-86
2022/04/02 05:03:51;;;;;;;5.23;2.47;;;-0.10;99.90;;;;;;6279663;22;20006;-87
2022/04/02 05:06:16;;;;;;;6.77;2.67;;;0.00;99.90;;;;;;6306040;22;20005;-87
2022/04/02 05:08:42;;;;;;;6.57;2.77;;;0.00;99.90;;;;;;6307283;22;20023;-87
2022/04/02 05:11:10;;;;;;;5.50;2.97;;;0.00;99.90;;;;;;6280896;22;20408;-86
2022/04/02 05:13:38;;;;;;;6.67;3.43;;;0.10;99.90;;;;;;6281859;22;20034;-87
2022/04/02 05:16:04;;;;;;;6.10;2.90;;;0.20;99.90;;;;;;6308108;22;20007;-87
2022/04/02 05:18:32;;;;;;;5.10;2.87;;;0.00;99.90;;;;;;6281014;22;20015;-86
2022/04/02 05:20:57;;;;;;;4.83;2.90;;;0.10;99.90;;;;;;6280122;22;20011;-87
2022/04/02 05:23:23;;;;;;;7.00;3.03;;;0.10;99.90;;;;;;6277602;22;20030;-86
2022/04/02 05:25:49;;;;;;;7.87;3.33;;;0.10;99.90;;;;;;6278529;22;20007;-86
2022/04/02 05:28:16;;;;;;;5.93;3.07;;;0.20;99.90;;;;;;6278242;22;20003;-86
2022/04/02 05:30:42;;;;;;;6.60;3.60;;;0.10;99.90;;;;;;6278739;22;20397;-86
2022/04/02 05:33:08;;;;;;;7.73;3.40;;;0.00;99.90;;;;;;6278733;22;20003;-87
2022/04/02 06:37:01;;;;;;;;;;;;;;;;;;;;;
2022/04/02 07:16:54;;;;;;;7.55;2.65;;;0.50;99.90;;;;;;6290766;22;20027;-86
2022/04/02 07:19:25;;;;;;;6.40;3.07;;;0.50;99.90;;;;;;6122291;23;20017;-86
2022/04/02 07:22:00;;;;;;;5.90;2.80;;;0.60;99.90;;;;;;6180556;23;20008;-85
2022/04/02 07:27:48;;;;;;;4.67;2.07;;;0.60;99.90;;;;;;6185952;22;20005;-85
2022/04/02 07:33:52;;;;;;;5.17;2.40;;;0.60;99.90;;;;;;6047414;23;20231;-87
2022/04/02 07:36:59;;;;;;;5.63;2.50;;;0.70;99.90;;;;;;6180164;23;19997;-86
2022/04/02 07:39:56;;;;;;;3.07;1.43;;;0.50;99.90;;;;;;6264775;22;20007;-87
2022/04/02 07:42:55;;;;;;;7.73;2.50;;;0.60;99.90;;;;;;6300999;22;20011;-86
2022/04/02 07:45:28;;;;;;;5.03;2.57;;;0.70;99.90;;;;;;6268169;22;20354;-86
2022/04/02 07:48:05;;;;;;;;;;;0.80;99.90;;;;;;6280998;22;20082;-86
2022/04/02 07:50:47;;;;;;;4.90;2.00;;;0.90;99.90;;;;;;6279563;22;19953;-86
2022/04/02 07:53:24;;;;;;;5.37;2.67;;;1.00;99.90;;;;;;6278207;22;20068;-86
2022/04/02 08:03:08;;;;;;;6.07;2.33;;;1.00;99.90;;;;;;6186556;23;20452;-86
2022/04/02 08:22:32;;;;;;;7.70;2.50;;;1.10;99.90;;;;;;6041258;23;20016;-87
2022/04/02 08:47:20;;;;;;;6.20;2.20;;;1.00;99.90;;;;;;6185017;23;20011;-86
2022/04/02 08:50:16;;;;;;;4.53;2.43;;;1.00;99.90;;;;;;6161037;23;20531;-86
2022/04/02 08:53:03;;;;;;;4.57;1.73;;;0.80;99.90;;;;;;6159414;23;20081;-86
2022/04/02 08:55:35;;;;;;;7.73;2.63;;;1.10;99.90;;;;;;6257862;22;20000;-87
2022/04/02 08:58:22;;;;;;;;;;;1.10;99.90;;;;;;6253557;22;20438;-86
2022/04/02 09:01:10;;;;;;;3.87;2.30;;;1.10;99.90;;;;;;6247443;22;19962;-86
2022/04/02 09:04:03;;;;;;;5.97;2.67;;;1.20;99.90;;;;;;6259454;22;20446;-86
2022/04/02 09:07:10;;;;;;;8.03;2.93;;;1.20;99.90;;;;;;6251378;22;20012;-87
2022/04/02 09:10:21;;;;;;;5.53;2.77;;;1.30;99.90;;;;;;6253812;22;20079;-86
2022/04/02 09:13:26;;;;;;;5.77;2.93;;;1.40;99.90;;;;;;6259359;22;20027;-86
2022/04/02 09:15:57;;;;;;;5.13;2.90;;;1.30;99.90;;;;;;6279266;22;19996;-87
2022/04/02 09:18:39;;;;;;;5.87;2.67;;;1.40;99.90;;;;;;6253198;22;19995;-87
2022/04/02 09:21:49;;;;;;;5.10;2.22;;;1.60;99.90;;;;;;6251699;22;20338;-88
2022/04/02 09:24:33;;;;;;;6.67;2.87;;;1.50;99.90;;;;;;6249598;22;20006;-88
2022/04/02 09:27:21;;;;;;;6.40;2.90;;;1.50;99.90;;;;;;6250917;22;20015;-88
2022/04/02 09:30:26;;;;;;;4.83;2.57;;;1.60;99.90;;;;;;6245845;22;20004;-89
2022/04/02 09:44:31;;;;;;;5.43;2.63;;;1.30;99.90;;;;;;6155879;23;20053;-88
2022/04/02 09:48:30;;;;;;;;;;;;;;;;;;;;;
2022/04/02 09:59:17;;;;;;;;;;;;;;;;;;;;;
2022/04/02 10:01:27;;;;;;;7.80;2.83;;;1.40;99.90;;;;;;6146645;23;20641;-88
2022/04/02 10:09:09;;;;;;;7.20;3.77;;;1.20;99.90;;;;;;6305228;22;20249;-86
2022/04/02 10:11:40;;;;;;;5.00;2.83;;;1.10;99.90;;;;;;6278690;22;20003;-87
2022/04/02 10:14:07;;;;;;;8.70;3.80;;;1.10;99.90;;;;;;6304499;22;20074;-87
2022/04/02 10:17:12;;;;;;;9.67;3.60;;;1.10;99.90;;;;;;6303406;22;20057;-87
2022/04/02 10:20:28;;;;;;;;;;;;;;;;;;;;;
2022/04/02 11:54:42;;;;;;;7.83;4.03;;;2.40;99.90;;;;;;6312475;22;20023;-89
2022/04/02 12:00:55;;;;;;;9.50;3.53;;;2.20;99.90;;;;;;6293184;22;20041;-87
2022/04/02 12:04:04;;;;;;;7.40;3.43;;;1.90;99.90;;;;;;6281686;22;20018;-88
2022/04/02 12:07:08;;;;;;;6.80;3.20;;;1.80;99.90;;;;;;6210681;22;20004;-87
2022/04/02 12:09:50;;;;;;;9.17;3.60;;;1.80;99.90;;;;;;6232218;22;20147;-88
2022/04/02 12:13:03;;;;;;;7.88;3.78;;;1.70;99.90;;;;;;6289995;22;20004;-88
2022/04/02 12:15:36;;;;;;;10.80;3.78;;;1.80;99.90;;;;;;6248917;22;20004;-87
2022/04/02 12:18:46;;;;;;;6.30;3.67;;;1.60;99.90;;;;;;6225000;23;20056;-89
2022/04/02 12:25:16;;;;;;;6.90;3.70;;;1.30;99.90;;;;;;6067883;23;20068;-88
2022/04/02 12:59:43;;;;;;;8.20;4.60;;;1.40;99.90;;;;;;6315843;22;20038;-87
2022/04/02 13:02:33;;;;;;;11.87;4.43;;;1.50;99.90;;;;;;6162347;23;20009;-87
2022/04/02 13:08:19;;;;;;;8.13;3.90;;;1.30;99.90;;;;;;6294121;22;20022;-86
2022/04/02 13:33:14;;;;;;;9.07;3.80;;;1.90;99.90;;;;;;6164141;23;20005;-86
2022/04/02 14:30:29;;;;;;;8.33;4.27;;;1.40;99.90;;;;;;6320167;22;20057;-87
2022/04/02 14:58:39;;;;;;;8.65;4.25;;;1.60;99.90;;;;;;6270865;22;20022;-87
2022/04/02 15:10:25;;;;;;;9.67;4.67;;;1.10;99.90;;;;;;6309226;22;20016;-84
2022/04/02 15:13:20;;;;;;;;;;;1.10;99.90;;;;;;6259829;22;20025;-86
2022/04/02 15:39:28;;;;;;;10.80;5.13;;;1.00;99.90;;;;;;6311741;22;20019;-85
2022/04/02 15:45:44;;;;;;;;;;;;;;;;;;;;;
2022/04/02 15:52:46;;;;;;;11.27;4.80;;;1.00;99.90;;;;;;6269796;22;20015;-87
2022/04/02 15:59:18;;;;;;;11.70;5.37;;;1.00;99.90;;;;;;6313406;22;20007;-88
2022/04/02 16:01:44;;;;;;;10.47;5.07;;;1.00;99.90;;;;;;6300883;22;20019;-87
2022/04/02 16:04:29;;;;;;;;;;;;;;;;;;;;;
2022/04/02 16:07:34;;;;;;;11.47;5.27;;;1.00;99.90;;;;;;6308839;22;20384;-87
2022/04/02 16:10:40;;;;;;;11.37;5.47;;;1.00;99.90;;;;;;6284200;22;19999;-88
2022/04/02 16:14:03;;;;;;;12.30;5.23;;;1.00;99.90;;;;;;6226544;22;20017;-87
2022/04/02 16:20:56;;;;;;;6.87;3.80;;;0.80;99.90;;;;;;6037858;23;20015;-84
2022/04/02 16:27:52;;;;;;;;;;;;;;;;;;;;;
2022/04/02 17:00:09;;;;;;;9.60;5.00;;;0.70;99.90;;;;;;6251029;22;20030;-87
2022/04/02 17:03:10;;;;;;;10.83;5.07;;;0.70;99.90;;;;;;6225916;23;20004;-87
2022/04/02 17:05:56;;;;;;;6.63;3.73;;;0.70;99.90;;;;;;6224137;23;20004;-87
2022/04/02 17:08:40;;;;;;;8.97;4.17;;;0.70;99.90;;;;;;6252889;23;20450;-87
2022/04/02 17:11:19;;;;;;;8.93;4.50;;;0.80;99.90;;;;;;6251552;23;20000;-86
2022/04/02 17:13:49;;;;;;;9.03;4.40;;;0.60;99.90;;;;;;6223655;23;20022;-87
2022/04/02 17:16:16;;;;;;;10.27;4.53;;;0.60;99.90;;;;;;6249700;23;20007;-86
2022/04/02 17:18:44;;;;;;;8.97;4.53;;;0.50;99.90;;;;;;6247282;23;20410;-87
2022/04/02 17:21:15;;;;;;;10.07;4.67;;;0.50;99.90;;;;;;6198596;23;20015;-87
2022/04/02 17:23:43;;;;;;;7.97;4.60;;;0.50;99.90;;;;;;6221615;23;20011;-86
2022/04/02 17:26:33;;;;;;;9.67;5.20;;;0.50;99.90;;;;;;6251018;23;20006;-88
2022/04/02 17:29:05;;;;;;;11.13;5.07;;;0.50;99.90;;;;;;6225047;23;20012;-88
2022/04/02 17:31:37;;;;;;;9.70;5.07;;;0.50;99.90;;;;;;6253005;23;20000;-89
2022/04/02 19:09:33;;;;;;;8.77;4.57;;;0.20;99.90;;;;;;6307155;22;20094;-88
2022/04/02 19:13:00;;;;;;;16.37;5.27;;;0.20;99.90;;;;;;6280682;22;20074;-88
2022/04/02 19:25:48;;;;;;;16.43;5.70;;;0.20;99.90;;;;;;6256240;22;20291;-85
2022/04/02 19:28:15;;;;;;;13.23;5.57;;;0.30;99.90;;;;;;6303614;22;20343;-85
2022/04/02 19:30:43;;;;;;;8.67;4.70;;;0.40;99.90;;;;;;6313194;22;20006;-86
2022/04/02 19:33:09;;;;;;;9.80;4.53;;;0.30;99.90;;;;;;6271942;22;20390;-86
2022/04/02 19:35:40;;;;;;;8.30;3.83;;;0.30;99.90;;;;;;6278180;22;20143;-85
2022/04/02 19:38:05;;;;;;;9.03;4.57;;;0.40;99.90;;;;;;6279716;22;20000;-84
2022/04/02 19:40:34;;;;;;;10.30;4.60;;;0.40;99.90;;;;;;6283789;22;19999;-86
2022/04/02 19:43:03;;;;;;;9.53;4.57;;;0.30;99.90;;;;;;6284201;22;20007;-86
2022/04/02 19:45:30;;;;;;;8.63;4.20;;;0.30;99.90;;;;;;6285292;22;20424;-85
2022/04/02 19:47:55;;;;;;;8.93;4.23;;;0.40;99.90;;;;;;6281994;22;19999;-86
2022/04/02 19:50:21;;;;;;;8.27;4.20;;;0.40;99.90;;;;;;6282135;22;20417;-85
2022/04/02 19:52:48;;;;;;;8.77;4.40;;;0.40;99.90;;;;;;6279593;22;20011;-86
2022/04/02 19:55:14;;;;;;;8.70;4.50;;;0.30;99.90;;;;;;6278631;22;20011;-86
2022/04/02 19:57:41;;;;;;;9.27;4.53;;;0.30;99.90;;;;;;6275521;22;20064;-86
2022/04/02 20:00:18;;;;;;;10.17;4.17;;;0.30;99.90;;;;;;6281202;22;20035;-85
2022/04/02 20:02:52;;;;;;;9.60;4.70;;;0.30;99.90;;;;;;6280464;22;20345;-87
2022/04/02 20:05:18;;;;;;;7.17;3.20;;;0.30;99.90;;;;;;6280342;22;20075;-86
2022/04/02 20:07:44;;;;;;;9.20;4.70;;;0.30;99.90;;;;;;6280773;22;20003;-86
2022/04/02 20:10:12;;;;;;;10.47;4.17;;;0.30;99.90;;;;;;6280493;22;20062;-86
2022/04/02 20:12:38;;;;;;;8.70;4.23;;;0.30;99.90;;;;;;6307096;22;20486;-86
2022/04/02 20:15:05;;;;;;;7.77;3.70;;;0.30;99.90;;;;;;6278264;22;20011;-87
2022/04/02 20:17:32;;;;;;;9.83;4.43;;;0.30;99.90;;;;;;6279403;22;20007;-86
2022/04/02 20:19:58;;;;;;;7.57;3.60;;;0.30;99.90;;;;;;6278081;22;20003;-86
2022/04/02 20:22:25;;;;;;;10.43;4.20;;;0.30;99.90;;;;;;6305887;22;20007;-86
2022/04/02 20:24:51;;;;;;;12.47;4.97;;;0.30;99.90;;;;;;6306575;22;19992;-88
2022/04/02 20:27:22;;;;;;;9.00;4.07;;;0.30;99.90;;;;;;6279557;22;20080;-86
2022/04/02 20:29:48;;;;;;;8.17;4.27;;;0.30;99.90;;;;;;6280387;22;20037;-86
2022/04/02 20:32:14;;;;;;;9.27;4.13;;;0.30;99.90;;;;;;6307959;22;20007;-86
2022/04/02 20:34:40;;;;;;;11.30;4.57;;;0.30;99.90;;;;;;6279971;22;20007;-85
2022/04/02 20:37:06;;;;;;;8.87;4.33;;;0.20;99.90;;;;;;6281728;22;20018;-85
2022/04/02 20:39:38;;;;;;;9.10;4.20;;;0.20;99.90;;;;;;6281345;22;20506;-85
2022/04/02 20:42:04;;;;;;;6.65;3.65;;;0.30;99.90;;;;;;6308110;22;19999;-86
2022/04/02 20:44:38;;;;;;;7.33;4.23;;;0.20;99.90;;;;;;6280142;22;20006;-87
2022/04/02 20:47:07;;;;;;;10.17;4.23;;;0.30;99.90;;;;;;6310006;22;19995;-86
2022/04/02 20:49:39;;;;;;;7.17;4.10;;;0.30;99.90;;;;;;6280617;22;20041;-86
2022/04/02 20:52:05;;;;;;;9.13;4.10;;;0.30;99.90;;;;;;6281042;22;20003;-87
2022/04/02 20:54:33;;;;;;;7.90;3.83;;;0.30;99.90;;;;;;6279705;22;20409;-86
2022/04/02 20:56:59;;;;;;;9.77;4.57;;;0.30;99.90;;;;;;6303153;22;20010;-86
2022/04/02 20:59:25;;;;;;;12.23;4.97;;;0.30;99.90;;;;;;6280157;22;20082;-86
2022/04/02 21:01:50;;;;;;;8.70;4.30;;;0.30;99.90;;;;;;6280307;22;20014;-85
2022/04/02 21:04:21;;;;;;;8.47;4.27;;;0.30;99.90;;;;;;6278961;22;20011;-87
2022/04/02 21:06:48;;;;;;;7.50;3.33;;;0.30;99.90;;;;;;6308390;22;20078;-86
2022/04/02 21:09:24;;;;;;;7.73;4.00;;;0.30;99.90;;;;;;6309231;22;19999;-86
2022/04/02 21:11:56;;;;;;;7.67;4.30;;;0.20;99.90;;;;;;6308063;22;20032;-86
2022/04/02 21:14:26;;;;;;;7.70;4.30;;;0.30;99.90;;;;;;6283413;22;20003;-86
2022/04/02 21:16:54;;;;;;;7.50;3.47;;;0.20;99.90;;;;;;6311311;22;19999;-87
2022/04/02 21:19:21;;;;;;;9.43;4.30;;;0.20;99.90;;;;;;6284871;22;20337;-86
2022/04/02 21:21:53;;;;;;;10.97;3.97;;;0.20;99.90;;;;;;6311439;22;20003;-86
2022/04/02 21:24:19;;;;;;;9.07;3.60;;;0.20;99.90;;;;;;6279670;22;20007;-87
2022/04/02 21:26:47;;;;;;;7.60;3.60;;;0.20;99.90;;;;;;6279664;22;20086;-87
2022/04/02 21:29:19;;;;;;;8.67;3.43;;;0.20;99.90;;;;;;6278736;22;20064;-88
2022/04/02 21:31:50;;;;;;;9.77;4.15;;;0.10;99.90;;;;;;6308011;22;20049;-88
2022/04/02 21:34:26;;;;;;;10.20;4.47;;;0.20;99.90;;;;;;6314982;22;20021;-84
2022/04/02 21:36:52;;;;;;;9.13;4.40;;;0.20;99.90;;;;;;6292541;22;20003;-87
2022/04/02 21:39:20;;;;;;;7.63;3.87;;;0.10;99.90;;;;;;6290950;22;20362;-86
2022/04/02 21:41:46;;;;;;;8.17;3.93;;;0.20;99.90;;;;;;6279146;22;20033;-86
2022/04/02 21:44:12;;;;;;;7.80;3.77;;;0.20;99.90;;;;;;6280381;22;20003;-87
2022/04/02 21:46:43;;;;;;;7.47;3.57;;;0.20;99.90;;;;;;6307952;22;20006;-88
2022/04/02 21:49:10;;;;;;;9.57;3.37;;;0.20;99.90;;;;;;6280524;22;20086;-88
2022/04/02 21:51:35;;;;;;;9.00;3.77;;;0.20;99.90;;;;;;6280590;22;20236;-88
2022/04/02 21:54:01;;;;;;;7.47;3.73;;;0.20;99.90;;;;;;6306726;22;20374;-88
2022/04/02 21:56:28;;;;;;;8.57;3.40;;;0.30;99.90;;;;;;6279797;22;20011;-88
2022/04/02 21:58:53;;;;;;;6.60;3.23;;;0.20;99.90;;;;;;6314881;22;19999;-88
2022/04/02 22:01:36;;;;;;;6.10;3.23;;;0.20;99.90;;;;;;6308336;22;20021;-89
2022/04/02 22:04:02;;;;;;;6.00;2.90;;;0.10;99.90;;;;;;6280657;22;20004;-88
2022/04/02 22:06:31;;;;;;;5.53;2.97;;;0.20;99.90;;;;;;6308864;22;20022;-87
2022/04/02 22:08:57;;;;;;;7.67;3.27;;;0.20;99.90;;;;;;6280230;22;20346;-88
2022/04/02 22:11:26;;;;;;;7.70;3.17;;;0.20;99.90;;;;;;6308785;22;20019;-88
2022/04/02 22:13:55;;;;;;;7.03;3.37;;;0.20;99.90;;;;;;6280409;22;20445;-89
2022/04/02 22:16:20;;;;;;;7.97;3.20;;;0.10;99.90;;;;;;6313312;22;20010;-86
2022/04/02 22:18:55;;;;;;;7.20;3.07;;;0.10;99.90;;;;;;6313230;22;20007;-88
2022/04/02 22:21:21;;;;;;;7.90;2.77;;;0.20;99.90;;;;;;6285874;22;20003;-87
2022/04/02 22:23:47;;;;;;;6.87;3.27;;;0.00;99.90;;;;;;6281314;22;20037;-87
2022/04/02 22:26:13;;;;;;;8.23;3.63;;;0.10;99.90;;;;;;6281143;22;20007;-88
2022/04/02 22:28:39;;;;;;;7.00;2.90;;;0.10;99.90;;;;;;6281220;22;19995;-89
2022/04/02 22:31:05;;;;;;;6.83;2.77;;;0.00;99.90;;;;;;6281498;22;20060;-89
2022/04/02 22:33:32;;;;;;;9.23;3.20;;;0.10;99.90;;;;;;6281159;22;20015;-87
2022/04/02 22:35:58;;;;;;;5.70;3.03;;;0.10;99.90;;;;;;6275937;22;20018;-87
2022/04/02 22:38:24;;;;;;;6.17;3.13;;;0.10;99.90;;;;;;6308498;22;20007;-89
2022/04/02 22:40:50;;;;;;;7.03;3.07;;;0.00;99.90;;;;;;6308206;22;20449;-89
2022/04/02 22:43:16;;;;;;;6.67;2.87;;;0.00;99.90;;;;;;6306715;22;20010;-88
2022/04/02 22:45:42;;;;;;;6.20;2.97;;;0.10;99.90;;;;;;6279290;22;20082;-88
2022/04/02 22:48:08;;;;;;;7.87;3.00;;;0.00;99.90;;;;;;6307471;22;20396;-89
2022/04/02 22:50:34;;;;;;;7.13;3.53;;;-0.10;99.90;;;;;;6306943;22;20044;-89
2022/04/02 22:53:03;;;;;;;7.00;2.97;;;0.10;99.90;;;;;;6279774;22;20082;-87
2022/04/02 22:55:29;;;;;;;6.17;2.73;;;0.10;99.90;;;;;;6306780;22;20446;-88
2022/04/02 22:57:57;;;;;;;6.80;3.20;;;0.10;99.90;;;;;;6308676;22;20030;-88
2022/04/02 23:00:23;;;;;;;6.23;3.43;;;0.00;99.90;;;;;;6308726;22;20007;-88
2022/04/02 23:02:49;;;;;;;9.40;3.93;;;0.10;99.90;;;;;;6308685;22;20007;-88
2022/04/02 23:05:16;;;;;;;8.07;3.87;;;0.10;99.90;;;;;;6279620;22;20017;-90
2022/04/02 23:07:44;;;;;;;7.47;3.73;;;0.10;99.90;;;;;;6285064;22;20000;-87
2022/04/02 23:10:10;;;;;;;7.73;3.60;;;0.00;99.90;;;;;;6300992;22;19999;-87
2022/04/02 23:12:40;;;;;;;7.33;3.70;;;0.10;99.90;;;;;;6300848;22;20067;-87
2022/04/02 23:15:07;;;;;;;7.47;2.90;;;0.00;99.90;;;;;;6326955;22;19995;-86
2022/04/02 23:17:33;;;;;;;7.47;4.00;;;0.10;99.90;;;;;;6301064;22;20055;-87
2022/04/02 23:19:58;;;;;;;10.80;4.00;;;0.10;99.90;;;;;;6301089;22;20030;-87
2022/04/02 23:22:25;;;;;;;6.40;3.70;;;0.00;99.90;;;;;;6291941;22;20011;-88
2022/04/02 23:24:51;;;;;;;11.03;4.23;;;0.10;99.90;;;;;;6281202;22;20030;-89
2022/04/02 23:27:20;;;;;;;9.67;4.07;;;0.10;99.90;;;;;;6286934;22;20009;-87
2022/04/02 23:29:45;;;;;;;9.00;4.57;;;0.00;99.90;;;;;;6320265;22;19995;-88
2022/04/02 23:32:11;;;;;;;8.33;3.60;;;0.00;99.90;;;;;;6293188;22;20006;-88
2022/04/02 23:34:37;;;;;;;9.97;4.20;;;0.00;99.90;;;;;;6304912;22;20474;-88
2022/04/02 23:43:19;;;;;;;7.40;3.07;;;0.00;99.90;;;;;;6259876;22;20015;-86
2022/04/02 23:49:40;;;;;;;6.80;3.58;;;0.00;99.90;;;;;;6199770;22;20022;-87